Aviation Digital Data Service (ADDS)

Output produced by METARs form (0855 UTC 19 November 2018)
found at http://www.aviationweather.gov/metar/data/
 
RJTT 190830Z 09006KT 9000 -RA FEW010 OVC070 15/13 Q1013 NOSIG RMK 1ST010 8AS070 A2992
RJTT 190800Z 10011KT 9999 -RA FEW010 OVC070 15/13 Q1013 NOSIG RMK 1ST010 8AS070 A2992
TAF AMD RJTT 190804Z 1908/2012 12010KT 9999 FEW020 BKN040 
     BECMG 1909/1911 34014KT 
     BECMG 2003/2006 04006KT
       
RJOO 190800Z 33009KT 9999 FEW025 SCT045 BKN070 14/04 Q1016 RMK 1CU025 3CU045 6AC070 A3001
TAF RJOO 190506Z 1906/2012 35007KT 9999 FEW025 SCT045
       
RJAA 190830Z VRB02KT 8000 -RA FEW015 BKN060 BKN070 13/12 Q1013 NOSIG RMK 1CU015 5SC060 7AC070 A2994
RJAA 190800Z 19003KT 9999 -RA FEW015 BKN070 OVC090 13/12 Q1013 NOSIG RMK 1CU015 6AC070 8AS090 A2994
TAF RJAA 190507Z 1906/2012 10004KT 9999 FEW030 SCT045 
     BECMG 1908/1910 36010KT 
     BECMG 2006/2009 10006KT
       
RJBB 190830Z 36013KT 9999 FEW015 BKN060 15/06 Q1016 NOSIG
RJBB 190800Z 35013KT 9999 FEW015 BKN050 15/06 Q1016 NOSIG
TAF RJBB 190511Z 1906/2012 02012KT 9999 FEW025 SCT045
       
RJCC 190830Z 35013KT 9999 FEW009 SCT025 BKN070 05/03 Q1013 RMK 1ST009 3CU025 5AC070 A2992
RJCC 190816Z 35014KT 9999 -SHRA FEW007 SCT009 BKN015 05/03 Q1013 RMK 1ST007 3ST009 5ST015 A2992
RJCC 190800Z 33018KT 9999 -SHRA FEW007 BKN009 BKN015 05/03 Q1013 RMK 1ST007 5ST009 6ST015 A2992
TAF AMD RJCC 190823Z 1908/2012 34012KT 9999 FEW006 BKN015 
     TEMPO 1915/1921 3000 -SHSN
       
RJGG 190830Z 32022KT 9999 FEW020 BKN140 16/08 Q1014 NOSIG
RJGG 190800Z 32024KT 9999 FEW020 BKN150 16/09 Q1013 NOSIG
TAF RJGG 190506Z 1906/2012 33015KT 9999 FEW020 
     BECMG 1907/1909 32025KT 
     TEMPO 1909/1912 32030G40KT
       
RJFF 190830Z 35007KT 330V040 9999 FEW030 SCT035 15/07 Q1019 NOSIG RMK 1CU030 3CU035 A3011
RJFF 190800Z 03005KT 280V090 9999 FEW025 SCT030 14/09 Q1019 NOSIG RMK 1CU025 3CU030 A3010
TAF RJFF 190506Z 1906/2012 01012KT 9999 FEW020 SCT030 BKN045 
     BECMG 1913/1915 14003KT 
     BECMG 2000/2003 34011KT 
     BECMG 2009/2012 14004KT
       
ROAH 190830Z 02018KT 9999 SCT015 BKN020 23/18 Q1016 RMK 3CU015 6CU020 A3002
ROAH 190800Z 01016KT 350V060 9999 -SHRA SCT015 BKN020 BKN100 23/18 Q1016 RMK 3CU015 5CU020 6AC100 A3001
TAF ROAH 190506Z 1906/2012 01018KT 9999 FEW020 BKN040